createdAt,value
2018-08-04T00:00:13.218Z,0
2018-08-04T00:01:15.272Z,0
2018-08-04T00:02:17.315Z,0
2018-08-04T00:03:19.368Z,0
2018-08-04T00:04:21.414Z,0
2018-08-04T00:05:23.463Z,0
2018-08-04T00:06:25.517Z,0
2018-08-04T00:07:28.243Z,0
2018-08-04T00:08:30.286Z,0
2018-08-04T00:09:32.328Z,0
2018-08-04T00:10:34.389Z,0
2018-08-04T00:11:36.444Z,0
2018-08-04T00:12:38.788Z,0
2018-08-04T00:13:41.220Z,0
2018-08-04T00:14:43.578Z,0
2018-08-04T00:15:45.637Z,0
2018-08-04T00:16:47.678Z,0
2018-08-04T00:17:49.732Z,0
2018-08-04T00:18:51.771Z,0
2018-08-04T00:19:53.826Z,0
2018-08-04T00:20:55.875Z,0
2018-08-04T00:21:57.916Z,0
2018-08-04T00:22:59.976Z,0
2018-08-04T00:24:02.418Z,0
2018-08-04T00:25:05.047Z,0
2018-08-04T00:26:07.392Z,0
2018-08-04T00:27:09.436Z,0
2018-08-04T00:28:11.796Z,0
2018-08-04T00:29:13.849Z,0
2018-08-04T00:30:15.903Z,0
2018-08-04T00:31:17.956Z,0
2018-08-04T00:32:19.998Z,0
2018-08-04T00:33:22.054Z,0
2018-08-04T00:34:24.109Z,0
2018-08-04T00:35:26.148Z,0
2018-08-04T00:36:28.205Z,0
2018-08-04T00:37:30.264Z,0
2018-08-04T00:38:32.308Z,0
2018-08-04T00:39:34.657Z,0
2018-08-04T00:40:36.986Z,0
2018-08-04T00:41:39.639Z,0
2018-08-04T00:42:41.974Z,0
2018-08-04T00:43:44.327Z,0
2018-08-04T00:44:46.752Z,0
2018-08-04T00:45:49.196Z,0
2018-08-04T00:46:51.251Z,0
2018-08-04T00:47:53.296Z,0
2018-08-04T00:48:55.353Z,0
2018-08-04T00:49:57.398Z,0
2018-08-04T00:50:59.449Z,0
2018-08-04T00:52:01.490Z,0
2018-08-04T00:53:03.551Z,0
2018-08-04T00:54:05.910Z,0
2018-08-04T00:55:07.957Z,0
2018-08-04T00:56:10.021Z,0
2018-08-04T00:57:12.344Z,0
2018-08-04T00:58:14.396Z,0
2018-08-04T00:59:16.457Z,0
2018-08-04T01:00:18.506Z,0
2018-08-04T01:01:20.554Z,0
2018-08-04T01:02:22.612Z,0
2018-08-04T01:03:24.670Z,0
2018-08-04T01:04:26.724Z,0
2018-08-04T01:05:28.757Z,0
2018-08-04T01:06:30.809Z,0
2018-08-04T01:07:33.560Z,0
2018-08-04T01:08:35.606Z,0
2018-08-04T01:09:37.968Z,0
2018-08-04T01:10:40.021Z,0
2018-08-04T01:11:42.075Z,0
2018-08-04T01:12:44.135Z,0
2018-08-04T01:13:46.199Z,0
2018-08-04T01:14:48.228Z,0
2018-08-04T01:15:50.548Z,0
2018-08-04T01:16:52.609Z,0
2018-08-04T01:17:54.654Z,0
2018-08-04T01:18:56.711Z,0
2018-08-04T01:19:58.769Z,0
2018-08-04T01:21:00.810Z,0
2018-08-04T01:22:02.868Z,0
2018-08-04T01:23:05.302Z,0
2018-08-04T01:24:07.352Z,0
2018-08-04T01:25:09.687Z,0
2018-08-04T01:26:11.746Z,0
2018-08-04T01:27:13.809Z,0
2018-08-04T01:28:15.869Z,0
2018-08-04T01:29:17.928Z,0
2018-08-04T01:30:19.966Z,0
2018-08-04T01:31:22.018Z,0
2018-08-04T01:32:24.074Z,0
2018-08-04T01:33:26.132Z,0
2018-08-04T01:34:28.183Z,0
2018-08-04T01:35:30.240Z,0
2018-08-04T01:36:32.669Z,0
2018-08-04T01:37:34.712Z,0
2018-08-04T01:38:36.766Z,0
2018-08-04T01:39:38.811Z,0
2018-08-04T01:40:41.154Z,0
2018-08-04T01:41:43.213Z,0
2018-08-04T01:42:45.256Z,0
2018-08-04T01:43:47.303Z,0
2018-08-04T01:44:49.744Z,0
2018-08-04T01:45:51.781Z,0
2018-08-04T01:46:54.119Z,0
2018-08-04T01:47:56.169Z,0
2018-08-04T01:48:58.221Z,0
2018-08-04T01:50:00.258Z,0
2018-08-04T01:51:02.312Z,0
2018-08-04T01:52:04.356Z,0
2018-08-04T01:53:06.399Z,0
2018-08-04T01:54:08.847Z,0
2018-08-04T01:55:11.271Z,0
2018-08-04T01:56:13.606Z,0
2018-08-04T01:57:15.946Z,0
2018-08-04T01:58:18.005Z,0
2018-08-04T01:59:20.043Z,0
2018-08-04T02:00:22.092Z,0
2018-08-04T02:01:24.138Z,0
2018-08-04T02:02:26.173Z,0
2018-08-04T02:03:28.229Z,0
2018-08-04T02:04:30.270Z,0
2018-08-04T02:05:32.309Z,0
2018-08-04T02:06:34.352Z,0
2018-08-04T02:07:36.412Z,0
2018-08-04T02:08:38.462Z,0
2018-08-04T02:09:40.509Z,0
2018-08-04T02:10:42.563Z,0
2018-08-04T02:11:44.601Z,0
2018-08-04T02:12:46.654Z,0
2018-08-04T02:13:48.993Z,0
2018-08-04T02:14:51.029Z,0
2018-08-04T02:15:53.086Z,0
2018-08-04T02:16:55.418Z,0
2018-08-04T02:17:57.776Z,0
2018-08-04T02:18:59.812Z,0
2018-08-04T02:20:01.881Z,0
2018-08-04T02:21:04.520Z,0
2018-08-04T02:22:06.573Z,0
2018-08-04T02:23:08.604Z,0
2018-08-04T02:24:10.958Z,0
2018-08-04T02:25:12.998Z,0
2018-08-04T02:26:15.037Z,0
2018-08-04T02:27:17.095Z,0
2018-08-04T02:28:19.132Z,0
2018-08-04T02:29:21.184Z,0
2018-08-04T02:30:23.223Z,0
2018-08-04T02:31:25.864Z,0
2018-08-04T02:32:27.905Z,0
2018-08-04T02:33:30.239Z,0
2018-08-04T02:34:32.296Z,0
2018-08-04T02:35:34.622Z,0
2018-08-04T02:36:37.270Z,0
2018-08-04T02:37:39.317Z,0
2018-08-04T02:38:42.326Z,0
2018-08-04T02:39:44.363Z,0
2018-08-04T02:40:46.800Z,0
2018-08-04T02:41:48.845Z,0
2018-08-04T02:42:50.898Z,0
2018-08-04T02:43:53.236Z,0
2018-08-04T02:44:55.872Z,0
2018-08-04T02:45:58.206Z,0
2018-08-04T02:47:00.262Z,0
2018-08-04T02:48:03.272Z,0
2018-08-04T02:49:05.321Z,0
2018-08-04T02:50:07.368Z,0
2018-08-04T02:51:09.987Z,0
2018-08-04T02:52:12.428Z,0
2018-08-04T02:53:14.759Z,0
2018-08-04T02:54:17.089Z,0
2018-08-04T02:55:19.132Z,4
2018-08-04T02:56:22.151Z,4
2018-08-04T02:57:24.204Z,0
2018-08-04T02:58:26.541Z,4
2018-08-04T02:59:29.173Z,4
2018-08-04T03:00:31.232Z,4
2018-08-04T03:01:33.585Z,8
2018-08-04T03:02:35.923Z,8
2018-08-04T03:03:37.966Z,8
2018-08-04T03:04:40.026Z,8
2018-08-04T03:05:42.078Z,8
2018-08-04T03:06:44.720Z,12
2018-08-04T03:07:46.824Z,16
2018-08-04T03:08:48.814Z,20
2018-08-04T03:09:50.864Z,20
2018-08-04T03:10:52.909Z,20
2018-08-04T03:11:54.949Z,28
2018-08-04T03:12:57.000Z,32
2018-08-04T03:13:59.338Z,36
2018-08-04T03:15:01.773Z,40
2018-08-04T03:16:04.408Z,44
2018-08-04T03:17:07.413Z,52
2018-08-04T03:18:09.736Z,60
2018-08-04T03:19:12.770Z,68
2018-08-04T03:20:14.820Z,76
2018-08-04T03:21:16.855Z,88
2018-08-04T03:22:19.577Z,96
2018-08-04T03:23:21.911Z,108
2018-08-04T03:24:24.339Z,120
2018-08-04T03:25:26.697Z,132
2018-08-04T03:26:28.738Z,144
2018-08-04T03:27:31.477Z,160
2018-08-04T03:28:33.517Z,176
2018-08-04T03:29:36.252Z,192
2018-08-04T03:30:38.583Z,212
2018-08-04T03:31:41.027Z,232
2018-08-04T03:32:43.388Z,248
2018-08-04T03:33:45.427Z,272
2018-08-04T03:34:47.860Z,288
2018-08-04T03:35:50.194Z,312
2018-08-04T03:36:52.619Z,336
2018-08-04T03:37:54.677Z,360
2018-08-04T03:38:56.717Z,380
2018-08-04T03:39:59.045Z,400
2018-08-04T03:41:01.380Z,428
2018-08-04T03:42:03.420Z,460
2018-08-04T03:43:05.474Z,504
2018-08-04T03:44:07.517Z,544
2018-08-04T03:45:09.561Z,584
2018-08-04T03:46:11.598Z,620
2018-08-04T03:47:13.950Z,664
2018-08-04T03:48:15.996Z,708
2018-08-04T03:49:18.046Z,736
2018-08-04T03:50:20.098Z,752
2018-08-04T03:51:22.129Z,760
2018-08-04T03:52:24.181Z,800
2018-08-04T03:53:26.233Z,840
2018-08-04T03:54:28.276Z,880
2018-08-04T03:55:30.326Z,932
2018-08-04T03:56:32.371Z,960
2018-08-04T03:57:34.802Z,1000
2018-08-04T03:58:37.143Z,1040
2018-08-04T03:59:39.202Z,1084
2018-08-04T04:00:41.227Z,1136
2018-08-04T04:01:43.271Z,1188
2018-08-04T04:02:45.611Z,1256
2018-08-04T04:03:48.036Z,1328
2018-08-04T04:04:50.086Z,1412
2018-08-04T04:05:52.137Z,1504
2018-08-04T04:06:54.168Z,1612
2018-08-04T04:07:56.228Z,1740
2018-08-04T04:08:58.555Z,1908
2018-08-04T04:10:00.607Z,2080
2018-08-04T04:11:03.027Z,2292
2018-08-04T04:12:05.079Z,2564
2018-08-04T04:13:07.127Z,2896
2018-08-04T04:14:09.165Z,3208
2018-08-04T04:15:11.223Z,3448
2018-08-04T04:16:13.260Z,3680
2018-08-04T04:17:15.318Z,3820
2018-08-04T04:18:17.368Z,3736
2018-08-04T04:19:19.419Z,3616
2018-08-04T04:20:21.459Z,3476
2018-08-04T04:21:23.507Z,3244
2018-08-04T04:22:25.548Z,3156
2018-08-04T04:23:27.590Z,3112
2018-08-04T04:24:29.652Z,3020
2018-08-04T04:25:31.698Z,2920
2018-08-04T04:26:34.126Z,2880
2018-08-04T04:27:36.187Z,2960
2018-08-04T04:28:38.230Z,3096
2018-08-04T04:29:40.280Z,3164
2018-08-04T04:30:42.334Z,3164
2018-08-04T04:31:44.656Z,3108
2018-08-04T04:32:47.098Z,3032
2018-08-04T04:33:49.152Z,2968
2018-08-04T04:34:51.203Z,2936
2018-08-04T04:35:53.239Z,2884
2018-08-04T04:36:55.297Z,2856
2018-08-04T04:37:57.711Z,2820
2018-08-04T04:38:59.758Z,2804
2018-08-04T04:40:02.111Z,2812
2018-08-04T04:41:04.150Z,2840
2018-08-04T04:42:06.205Z,2896
2018-08-04T04:43:08.567Z,2988
2018-08-04T04:44:10.623Z,3132
2018-08-04T04:45:12.671Z,3320
2018-08-04T04:46:14.718Z,3496
2018-08-04T04:47:16.778Z,3636
2018-08-04T04:48:19.486Z,3744
2018-08-04T04:49:21.878Z,3788
2018-08-04T04:50:24.317Z,3832
2018-08-04T04:51:26.371Z,3840
2018-08-04T04:52:28.425Z,3840
2018-08-04T04:53:30.754Z,3860
2018-08-04T04:54:32.807Z,3856
2018-08-04T04:55:35.131Z,3864
2018-08-04T04:56:37.461Z,3880
2018-08-04T04:57:39.520Z,3952
2018-08-04T04:58:41.568Z,4048
2018-08-04T04:59:43.891Z,4200
2018-08-04T05:00:45.950Z,4392
2018-08-04T05:01:48.288Z,4564
2018-08-04T05:02:50.337Z,4744
2018-08-04T05:03:52.389Z,4916
2018-08-04T05:04:54.433Z,5064
2018-08-04T05:05:56.475Z,5224
2018-08-04T05:06:59.200Z,5448
2018-08-04T05:08:01.538Z,5700
2018-08-04T05:09:03.573Z,5984
2018-08-04T05:10:05.627Z,6376
2018-08-04T05:11:07.673Z,6840
2018-08-04T05:12:09.716Z,7368
2018-08-04T05:13:12.183Z,7908
2018-08-04T05:14:14.507Z,8468
2018-08-04T05:15:16.560Z,8844
2018-08-04T05:16:18.609Z,8920
2018-08-04T05:17:20.949Z,8804
2018-08-04T05:18:22.993Z,8696
2018-08-04T05:19:25.429Z,8560
2018-08-04T05:20:27.483Z,8444
2018-08-04T05:21:29.614Z,8536
2018-08-04T05:22:31.582Z,8608
2018-08-04T05:23:33.626Z,8612
2018-08-04T05:24:35.949Z,8596
2018-08-04T05:25:37.995Z,8596
2018-08-04T05:26:40.045Z,8524
2018-08-04T05:27:42.092Z,8428
2018-08-04T05:28:44.136Z,8284
2018-08-04T05:29:46.469Z,8204
2018-08-04T05:30:48.528Z,8008
2018-08-04T05:31:50.570Z,7848
2018-08-04T05:32:52.620Z,7708
2018-08-04T05:33:54.677Z,7460
2018-08-04T05:34:56.722Z,7228
2018-08-04T05:35:58.770Z,7204
2018-08-04T05:37:00.824Z,7192
2018-08-04T05:38:03.143Z,7160
2018-08-04T05:39:05.197Z,7076
2018-08-04T05:40:07.254Z,6952
2018-08-04T05:41:10.269Z,6840
2018-08-04T05:42:12.301Z,6768
2018-08-04T05:43:14.427Z,6700
2018-08-04T05:44:16.404Z,6640
2018-08-04T05:45:18.838Z,6628
2018-08-04T05:46:20.897Z,6704
2018-08-04T05:47:22.938Z,6840
2018-08-04T05:48:25.381Z,6976
2018-08-04T05:49:27.426Z,7132
2018-08-04T05:50:29.784Z,7220
2018-08-04T05:51:31.833Z,7192
2018-08-04T05:52:33.880Z,7088
2018-08-04T05:53:35.937Z,6952
2018-08-04T05:54:37.977Z,6888
2018-08-04T05:55:40.040Z,6948
2018-08-04T05:56:42.086Z,6992
2018-08-04T05:57:44.129Z,6992
2018-08-04T05:58:46.175Z,6956
2018-08-04T05:59:48.230Z,6908
2018-08-04T06:00:50.284Z,6844
2018-08-04T06:01:52.343Z,6836
2018-08-04T06:02:54.962Z,6936
2018-08-04T06:03:57.004Z,7048
2018-08-04T06:04:59.059Z,7116
2018-08-04T06:06:01.158Z,7184
2018-08-04T06:07:03.505Z,7248
2018-08-04T06:08:05.554Z,7264
2018-08-04T06:09:07.600Z,7316
2018-08-04T06:10:09.655Z,7400
2018-08-04T06:11:12.383Z,7488
2018-08-04T06:12:14.438Z,7540
2018-08-04T06:13:16.493Z,7560
2018-08-04T06:14:18.550Z,7624
2018-08-04T06:15:20.591Z,7708
2018-08-04T06:16:22.645Z,7768
2018-08-04T06:17:24.691Z,7880
2018-08-04T06:18:27.036Z,7996
2018-08-04T06:19:29.099Z,8004
2018-08-04T06:20:31.141Z,8012
2018-08-04T06:21:33.199Z,7944
2018-08-04T06:22:35.247Z,7880
2018-08-04T06:23:37.308Z,7828
2018-08-04T06:24:39.356Z,7796
2018-08-04T06:25:41.406Z,7936
2018-08-04T06:26:43.751Z,8164
2018-08-04T06:27:45.791Z,8508
2018-08-04T06:28:47.848Z,8876
2018-08-04T06:29:49.895Z,9216
2018-08-04T06:30:51.936Z,9444
2018-08-04T06:31:54.006Z,9580
2018-08-04T06:32:56.038Z,9672
2018-08-04T06:33:58.400Z,9696
2018-08-04T06:35:00.459Z,9600
2018-08-04T06:36:02.794Z,9392
2018-08-04T06:37:04.835Z,9100
2018-08-04T06:38:06.894Z,8828
2018-08-04T06:39:08.948Z,8564
2018-08-04T06:40:10.988Z,8308
2018-08-04T06:41:13.043Z,8156
2018-08-04T06:42:15.095Z,8068
2018-08-04T06:43:17.141Z,8192
2018-08-04T06:44:19.200Z,8388
2018-08-04T06:45:21.247Z,8620
2018-08-04T06:46:23.604Z,8772
2018-08-04T06:47:25.651Z,8848
2018-08-04T06:48:27.709Z,8904
2018-08-04T06:49:29.753Z,8972
2018-08-04T06:50:31.754Z,9164
2018-08-04T06:51:33.755Z,9500
2018-08-04T06:52:35.820Z,9992
2018-08-04T06:53:37.892Z,10552
2018-08-04T06:54:39.975Z,11168
2018-08-04T06:55:41.987Z,11804
2018-08-04T06:56:44.424Z,12272
2018-08-04T06:57:46.506Z,12532
2018-08-04T06:58:48.817Z,12660
2018-08-04T06:59:50.891Z,12780
2018-08-04T07:00:53.208Z,13016
2018-08-04T07:01:55.647Z,13300
2018-08-04T07:02:57.655Z,13588
2018-08-04T07:03:59.713Z,13772
2018-08-04T07:05:01.775Z,13900
2018-08-04T07:06:04.099Z,14080
2018-08-04T07:07:06.147Z,14388
2018-08-04T07:08:08.545Z,14788
2018-08-04T07:09:10.687Z,15096
2018-08-04T07:10:13.079Z,15324
2018-08-04T07:11:15.140Z,15544
2018-08-04T07:12:17.502Z,15764
2018-08-04T07:13:19.587Z,16020
2018-08-04T07:14:22.034Z,16220
2018-08-04T07:15:24.637Z,16320
2018-08-04T07:16:26.925Z,16452
2018-08-04T07:17:29.356Z,16672
2018-08-04T07:18:31.432Z,16956
2018-08-04T07:19:33.904Z,17132
2018-08-04T07:20:36.045Z,17128
2018-08-04T07:21:38.388Z,17120
2018-08-04T07:22:40.437Z,17240
2018-08-04T07:23:42.466Z,17376
2018-08-04T07:24:45.067Z,17516
2018-08-04T07:25:47.122Z,17292
2018-08-04T07:26:49.130Z,16604
2018-08-04T07:27:51.159Z,15860
2018-08-04T07:28:53.587Z,15904
2018-08-04T07:29:55.555Z,16120
2018-08-04T07:30:57.587Z,16072
2018-08-04T07:31:59.923Z,16524
2018-08-04T07:33:02.245Z,17392
2018-08-04T07:34:04.580Z,18528
2018-08-04T07:35:06.644Z,18976
2018-08-04T07:36:08.695Z,19104
2018-08-04T07:37:10.717Z,18720
2018-08-04T07:38:12.758Z,18784
2018-08-04T07:39:15.075Z,19296
2018-08-04T07:40:17.389Z,19328
2018-08-04T07:41:19.447Z,17756
2018-08-04T07:42:21.485Z,16260
2018-08-04T07:43:23.857Z,15724
2018-08-04T07:44:25.870Z,15300
2018-08-04T07:45:28.199Z,14884
2018-08-04T07:46:30.309Z,14740
2018-08-04T07:47:32.745Z,14860
2018-08-04T07:48:34.795Z,15264
2018-08-04T07:49:36.819Z,16052
2018-08-04T07:50:38.856Z,16996
2018-08-04T07:51:40.900Z,18032
2018-08-04T07:52:43.298Z,18592
2018-08-04T07:53:45.327Z,17720
2018-08-04T07:54:47.349Z,17400
2018-08-04T07:55:49.361Z,17328
2018-08-04T07:56:52.026Z,16472
2018-08-04T07:57:54.078Z,15608
2018-08-04T07:58:56.122Z,15448
2018-08-04T07:59:58.136Z,15380
2018-08-04T08:01:00.482Z,16080
2018-08-04T08:02:02.521Z,17412
2018-08-04T08:03:04.594Z,18700
2018-08-04T08:04:06.629Z,19328
2018-08-04T08:05:09.034Z,19328
2018-08-04T08:06:11.084Z,19552
2018-08-04T08:07:13.408Z,19360
2018-08-04T08:08:15.458Z,19648
2018-08-04T08:09:17.773Z,20064
2018-08-04T08:10:19.842Z,20416
2018-08-04T08:11:21.936Z,20608
2018-08-04T08:12:23.925Z,20064
2018-08-04T08:13:25.938Z,20416
2018-08-04T08:14:27.966Z,21312
2018-08-04T08:15:29.989Z,22240
2018-08-04T08:16:32.015Z,22848
2018-08-04T08:17:34.055Z,22944
2018-08-04T08:18:36.390Z,23808
2018-08-04T08:19:38.731Z,24800
2018-08-04T08:20:40.794Z,25536
2018-08-04T08:21:42.830Z,28256
2018-08-04T08:22:44.843Z,28256
2018-08-04T08:23:46.882Z,28512
2018-08-04T08:24:48.936Z,29632
2018-08-04T08:25:51.766Z,30368
2018-08-04T08:26:53.791Z,29376
2018-08-04T08:27:56.138Z,29440
2018-08-04T08:28:58.166Z,29312
2018-08-04T08:30:00.194Z,31008
2018-08-04T08:31:02.230Z,30240
2018-08-04T08:32:04.285Z,30432
2018-08-04T08:33:06.936Z,34336
2018-08-04T08:34:08.949Z,45184
2018-08-04T08:35:10.983Z,48512
2018-08-04T08:36:13.265Z,54112
2018-08-04T08:37:15.908Z,41760
2018-08-04T08:38:26.168Z,39456
2018-08-04T08:39:33.233Z,37568
2018-08-04T08:40:35.251Z,39360
2018-08-04T08:41:37.288Z,37856
2018-08-04T08:42:39.744Z,40320
2018-08-04T08:43:42.629Z,38336
2018-08-04T08:44:45.050Z,31936
2018-08-04T08:45:47.354Z,29376
2018-08-04T08:46:49.776Z,26880
2018-08-04T08:47:52.075Z,34912
2018-08-04T08:48:54.096Z,32416
2018-08-04T08:49:56.385Z,29856
2018-08-04T08:50:58.402Z,30752
2018-08-04T08:52:00.425Z,24960
2018-08-04T08:53:02.457Z,25536
2018-08-04T08:54:05.028Z,31552
2018-08-04T08:55:07.378Z,61376
2018-08-04T08:56:09.388Z,30784
2018-08-04T08:57:11.413Z,29312
2018-08-04T08:58:13.427Z,36896
2018-08-04T08:59:15.435Z,37760
2018-08-04T09:00:17.829Z,51392
2018-08-04T09:01:19.862Z,35488
2018-08-04T09:02:22.216Z,61920
2018-08-04T09:03:24.238Z,58592
2018-08-04T09:04:26.260Z,57056
2018-08-04T09:05:28.263Z,44576
2018-08-04T09:06:30.288Z,88672
2018-08-04T09:07:32.294Z,84000
2018-08-04T09:08:34.620Z,95712
2018-08-04T09:09:36.600Z,93632
2018-08-04T09:10:38.614Z,88992
2018-08-04T09:11:40.922Z,91264
2018-08-04T09:12:43.229Z,93760
2018-08-04T09:13:45.257Z,91040
2018-08-04T09:14:47.540Z,87520
2018-08-04T09:15:49.560Z,83616
2018-08-04T09:16:51.582Z,87488
2018-08-04T09:17:53.606Z,90272
2018-08-04T09:18:55.628Z,89088
2018-08-04T09:19:57.644Z,89504
2018-08-04T09:20:59.946Z,92672
2018-08-04T09:22:01.971Z,88832
2018-08-04T09:23:04.327Z,89952
2018-08-04T09:24:06.301Z,86944
2018-08-04T09:25:08.591Z,85696
2018-08-04T09:26:10.618Z,89376
2018-08-04T09:27:12.929Z,97344
2018-08-04T09:28:14.951Z,101536
2018-08-04T09:29:16.974Z,96544
2018-08-04T09:30:18.983Z,94432
2018-08-04T09:31:21.006Z,92608
2018-08-04T09:32:23.028Z,87840
2018-08-04T09:33:25.049Z,88928
2018-08-04T09:34:27.479Z,103104
2018-08-04T09:35:29.575Z,117152
2018-08-04T09:36:31.853Z,114176
2018-08-04T09:37:34.152Z,99008
2018-08-04T09:38:36.184Z,96064
2018-08-04T09:39:38.192Z,99904
2018-08-04T09:40:40.216Z,106784
2018-08-04T09:41:42.234Z,105440
2018-08-04T09:42:44.264Z,103264
2018-08-04T09:43:46.574Z,99296
2018-08-04T09:44:48.596Z,111552
2018-08-04T09:45:50.614Z,115424
2018-08-04T09:46:52.626Z,104864
2018-08-04T09:47:54.658Z,95008
2018-08-04T09:48:57.059Z,99264
2018-08-04T09:49:59.076Z,97792
2018-08-04T09:51:01.090Z,97792
2018-08-04T09:52:03.122Z,89920
2018-08-04T09:53:05.134Z,89280
2018-08-04T09:54:07.151Z,92512
2018-08-04T09:55:09.167Z,99264
2018-08-04T09:56:11.195Z,107648
2018-08-04T09:57:13.223Z,114080
2018-08-04T09:58:15.243Z,113632
2018-08-04T09:59:17.266Z,108480
2018-08-04T10:00:19.283Z,95328
2018-08-04T10:01:21.701Z,97280
2018-08-04T10:02:23.725Z,99040
2018-08-04T10:03:26.028Z,101120
2018-08-04T10:04:28.338Z,105728
2018-08-04T10:05:30.672Z,107008
2018-08-04T10:06:32.984Z,106496
2018-08-04T10:07:35.561Z,107104
2018-08-04T10:08:37.596Z,101888
2018-08-04T10:09:39.666Z,99904
2018-08-04T10:10:41.748Z,107392
2018-08-04T10:11:43.858Z,106464
2018-08-04T10:12:45.986Z,106304
2018-08-04T10:13:48.045Z,102624
2018-08-04T10:14:50.402Z,101824
2018-08-04T10:15:52.490Z,106016
2018-08-04T10:16:54.599Z,101952
2018-08-04T10:17:56.663Z,100512
2018-08-04T10:18:58.764Z,98464
2018-08-04T10:20:00.863Z,98272
2018-08-04T10:21:02.922Z,97888
2018-08-04T10:22:05.372Z,102368
2018-08-04T10:23:07.453Z,108640
2018-08-04T10:24:09.833Z,112128
2018-08-04T10:25:11.904Z,110976
2018-08-04T10:26:14.273Z,105728
2018-08-04T10:27:16.647Z,107200
2018-08-04T10:28:18.811Z,110208
2018-08-04T10:29:20.904Z,114112
2018-08-04T10:30:23.093Z,115424
2018-08-04T10:31:25.161Z,117216
2018-08-04T10:32:27.347Z,115168
2018-08-04T10:33:29.727Z,110816
2018-08-04T10:34:31.799Z,113696
2018-08-04T10:35:33.869Z,112832
2018-08-04T10:36:35.967Z,122112
2018-08-04T10:37:38.046Z,126976
2018-08-04T10:38:40.570Z,126144
2018-08-04T10:39:43.060Z,121056
2018-08-04T10:40:45.160Z,116256
2018-08-04T10:41:47.220Z,116320
2018-08-04T10:42:49.345Z,111808
2018-08-04T10:43:51.490Z,111552
2018-08-04T10:44:53.503Z,107904
2018-08-04T10:45:55.603Z,114784
2018-08-04T10:46:57.695Z,122848
2018-08-04T10:47:59.826Z,110624
2018-08-04T10:49:01.996Z,111456
2018-08-04T10:50:04.209Z,113568
2018-08-04T10:51:06.307Z,108288
2018-08-04T10:52:08.401Z,102720
2018-08-04T10:53:10.493Z,108480
2018-08-04T10:54:12.644Z,117120
2018-08-04T10:55:15.001Z,119008
2018-08-04T10:56:17.096Z,97152
2018-08-04T10:57:19.173Z,33248
2018-08-04T10:58:21.266Z,34176
2018-08-04T10:59:23.342Z,45152
2018-08-04T11:00:25.773Z,26432
2018-08-04T11:01:27.878Z,29184
2018-08-04T11:02:29.986Z,40640
2018-08-04T11:03:32.076Z,92992
2018-08-04T11:04:34.166Z,22336
2018-08-04T11:05:36.573Z,108224
2018-08-04T11:06:38.658Z,114176
2018-08-04T11:07:40.749Z,110400
2018-08-04T11:08:42.844Z,109856
2018-08-04T11:09:44.961Z,113376
2018-08-04T11:10:47.044Z,110080
2018-08-04T11:11:49.146Z,109728
2018-08-04T11:12:51.497Z,104928
2018-08-04T11:13:53.593Z,109952
2018-08-04T11:14:56.350Z,113312
2018-08-04T11:15:58.421Z,107456
2018-08-04T11:17:00.815Z,106816
2018-08-04T11:18:02.921Z,112960
2018-08-04T11:19:05.405Z,112512
2018-08-04T11:20:07.475Z,116160
2018-08-04T11:21:09.886Z,115232
2018-08-04T11:22:11.937Z,113792
2018-08-04T11:23:14.041Z,114240
2018-08-04T11:24:16.128Z,111264
2018-08-04T11:25:18.219Z,116000
2018-08-04T11:26:20.299Z,121600
2018-08-04T11:27:22.413Z,124992
2018-08-04T11:28:24.494Z,126400
2018-08-04T11:29:26.977Z,94592
2018-08-04T11:30:29.134Z,127552
2018-08-04T11:31:31.261Z,127424
2018-08-04T11:32:33.397Z,72032
2018-08-04T11:33:35.491Z,111328
2018-08-04T11:34:37.600Z,133024
2018-08-04T11:35:39.698Z,134080
2018-08-04T11:36:42.371Z,100480
2018-08-04T11:37:44.492Z,48192
2018-08-04T11:38:46.906Z,26496
2018-08-04T11:39:48.990Z,30016
2018-08-04T11:40:51.117Z,132768
2018-08-04T11:41:53.196Z,101600
2018-08-04T11:42:55.274Z,132672
2018-08-04T11:43:57.416Z,133920
2018-08-04T11:44:59.510Z,130592
2018-08-04T11:46:01.600Z,129984
2018-08-04T11:47:03.678Z,129312
2018-08-04T11:48:05.766Z,121088
2018-08-04T11:49:07.907Z,120672
2018-08-04T11:50:09.992Z,118784
2018-08-04T11:51:12.093Z,116000
2018-08-04T11:52:14.177Z,116800
2018-08-04T11:53:16.252Z,121632
2018-08-04T11:54:18.313Z,125152
2018-08-04T11:55:20.390Z,122400
2018-08-04T11:56:22.451Z,66688
2018-08-04T11:57:24.517Z,125312
2018-08-04T11:58:26.641Z,34432
2018-08-04T11:59:28.645Z,27712
2018-08-04T12:00:30.721Z,34112
2018-08-04T12:01:32.783Z,80128
2018-08-04T12:02:34.846Z,29504
2018-08-04T12:03:36.910Z,117984
2018-08-04T12:04:38.983Z,116288
2018-08-04T12:05:41.052Z,116096
2018-08-04T12:06:43.125Z,113632
2018-08-04T12:07:45.478Z,114432
2018-08-04T12:08:47.536Z,116800
2018-08-04T12:09:49.612Z,122688
2018-08-04T12:10:51.983Z,122752
2018-08-04T12:11:54.428Z,124448
2018-08-04T12:12:56.501Z,120608
2018-08-04T12:13:58.566Z,115584
2018-08-04T12:15:00.627Z,114368
2018-08-04T12:16:02.709Z,108288
2018-08-04T12:17:04.772Z,116736
2018-08-04T12:18:06.862Z,123552
2018-08-04T12:19:09.279Z,126720
2018-08-04T12:20:11.354Z,123456
2018-08-04T12:21:13.420Z,117248
2018-08-04T12:22:15.485Z,114368
2018-08-04T12:23:17.575Z,119712
2018-08-04T12:24:19.635Z,120608
2018-08-04T12:25:21.693Z,122144
2018-08-04T12:26:24.090Z,119168
2018-08-04T12:27:26.539Z,117376
2018-08-04T12:28:28.616Z,125856
2018-08-04T12:29:30.677Z,31520
2018-08-04T12:30:32.743Z,100448
2018-08-04T12:31:34.890Z,45056
2018-08-04T12:32:36.872Z,28032
2018-08-04T12:33:39.361Z,33856
2018-08-04T12:34:41.425Z,30912
2018-08-04T12:35:43.775Z,68768
2018-08-04T12:36:45.838Z,116064
2018-08-04T12:37:47.913Z,120640
2018-08-04T12:38:49.981Z,113664
2018-08-04T12:39:52.367Z,104448
2018-08-04T12:40:54.437Z,102688
2018-08-04T12:41:56.496Z,107840
2018-08-04T12:42:58.571Z,109312
2018-08-04T12:44:00.926Z,108256
2018-08-04T12:45:03.286Z,110464
2018-08-04T12:46:05.357Z,110144
2018-08-04T12:47:07.428Z,107264
2018-08-04T12:48:09.781Z,98912
2018-08-04T12:49:11.860Z,96480
2018-08-04T12:50:13.925Z,100704
2018-08-04T12:51:15.987Z,104000
2018-08-04T12:52:18.229Z,102368
2018-08-04T12:53:20.681Z,102688
2018-08-04T12:54:22.791Z,108288
2018-08-04T12:55:24.859Z,110272
2018-08-04T12:56:27.601Z,70880
2018-08-04T12:57:29.827Z,27968
2018-08-04T12:58:32.476Z,33696
2018-08-04T12:59:35.035Z,110944
2018-08-04T13:00:40.069Z,106976
2018-08-04T13:01:43.160Z,24640
2018-08-04T13:03:01.588Z,21088
2018-08-04T13:04:05.301Z,23744
2018-08-04T13:05:07.394Z,42784
2018-08-04T13:06:09.860Z,105088
2018-08-04T13:07:11.942Z,103008
2018-08-04T13:08:14.346Z,109472
2018-08-04T13:09:16.773Z,27200
2018-08-04T13:10:18.977Z,62144
2018-08-04T13:11:21.088Z,108736
2018-08-04T13:12:23.164Z,103936
2018-08-04T13:13:25.278Z,104736
2018-08-04T13:14:27.366Z,102816
2018-08-04T13:15:29.460Z,104256
2018-08-04T13:16:31.550Z,101408
2018-08-04T13:17:33.644Z,97888
2018-08-04T13:18:35.775Z,96448
2018-08-04T13:19:37.862Z,98624
2018-08-04T13:20:40.009Z,100352
2018-08-04T13:21:42.089Z,100320
2018-08-04T13:22:44.184Z,97792
2018-08-04T13:23:46.589Z,95392
2018-08-04T13:24:48.979Z,91360
2018-08-04T13:25:51.388Z,94016
2018-08-04T13:26:53.470Z,95136
2018-08-04T13:27:55.534Z,96320
2018-08-04T13:28:57.616Z,98048
2018-08-04T13:29:59.726Z,102336
2018-08-04T13:31:01.839Z,105728
2018-08-04T13:32:05.435Z,103744
2018-08-04T13:33:07.668Z,104704
2018-08-04T13:34:09.757Z,103488
2018-08-04T13:35:11.823Z,100576
2018-08-04T13:36:14.336Z,95616
2018-08-04T13:37:17.252Z,95872
2018-08-04T13:38:19.287Z,100320
2018-08-04T13:39:21.380Z,98624
2018-08-04T13:40:23.882Z,97024
2018-08-04T13:41:25.958Z,95392
2018-08-04T13:42:28.133Z,96448
2018-08-04T13:43:30.522Z,99968
2018-08-04T13:44:32.961Z,99616
2018-08-04T13:45:35.042Z,97856
2018-08-04T13:46:37.192Z,94272
2018-08-04T13:47:39.355Z,97600
2018-08-04T13:48:41.427Z,109728